createdAt,value
2023-04-12T00:41:18.614Z,2.17
2023-04-12T00:42:17.628Z,2.17
2023-04-12T00:43:17.694Z,2.14
2023-04-12T00:44:17.763Z,2.09
2023-04-12T00:45:17.922Z,2.16
2023-04-12T00:46:18.019Z,2.09
2023-04-12T00:47:18.008Z,2.06
2023-04-12T00:48:18.105Z,2.03
2023-04-12T00:49:18.206Z,2.05
2023-04-12T00:50:18.283Z,2.03
2023-04-12T00:51:18.484Z,2.00
2023-04-12T00:52:18.428Z,2.00
2023-04-12T00:53:18.559Z,1.98
2023-04-12T00:54:18.556Z,2.00
2023-04-12T00:55:18.703Z,2.00
2023-04-12T00:56:18.794Z,2.00
2023-04-12T00:57:18.807Z,1.93
2023-04-12T00:58:18.893Z,2.00
2023-04-12T00:59:18.996Z,1.87
2023-04-12T01:00:19.118Z,1.90
2023-04-12T01:01:19.306Z,1.87
2023-04-12T01:02:19.277Z,1.87
2023-04-12T01:03:19.469Z,1.86
2023-04-12T01:04:19.375Z,1.86
2023-04-12T01:05:19.449Z,1.88
2023-04-12T01:06:19.572Z,1.86
2023-04-12T01:07:19.669Z,1.77
2023-04-12T01:08:19.734Z,1.80
2023-04-12T01:09:19.822Z,1.77
2023-04-12T01:10:19.927Z,1.76
2023-04-12T01:11:19.980Z,1.70
2023-04-12T01:12:20.109Z,1.72
2023-04-12T01:13:20.118Z,1.70
2023-04-12T01:14:20.291Z,1.72
2023-04-12T01:15:20.315Z,1.68
2023-04-12T01:16:20.393Z,1.63
2023-04-12T01:17:20.485Z,1.66
2023-04-12T01:18:20.519Z,1.66
2023-04-12T01:19:20.576Z,1.60
2023-04-12T01:20:20.696Z,1.63
2023-04-12T01:21:20.753Z,1.63
2023-04-12T01:22:20.882Z,1.62
2023-04-12T01:23:20.905Z,1.60
2023-04-12T01:24:20.967Z,1.63
2023-04-12T01:25:21.075Z,1.66
2023-04-12T01:26:21.173Z,1.59
2023-04-12T01:27:21.249Z,1.63
2023-04-12T01:28:21.258Z,1.63
2023-04-12T01:29:21.377Z,1.63
2023-04-12T01:30:21.420Z,1.60
2023-04-12T01:31:21.617Z,1.68
2023-04-12T01:32:21.687Z,1.66
2023-04-12T01:33:21.730Z,1.63
2023-04-12T01:34:21.753Z,1.69
2023-04-12T01:35:21.928Z,1.68
2023-04-12T01:36:21.917Z,1.69
2023-04-12T01:37:21.976Z,1.72
2023-04-12T01:38:22.139Z,1.73
2023-04-12T01:39:22.196Z,1.77
2023-04-12T01:40:22.208Z,1.83
2023-04-12T01:41:22.307Z,1.79
2023-04-12T01:42:22.378Z,1.81
2023-04-12T01:43:22.531Z,1.84
2023-04-12T01:44:22.593Z,1.86
2023-04-12T01:45:22.674Z,1.86
2023-04-12T01:46:22.684Z,1.86
2023-04-12T01:47:22.882Z,1.87
2023-04-12T01:48:22.903Z,1.84
2023-04-12T01:49:23.012Z,1.86
2023-04-12T01:50:23.064Z,1.83
2023-04-12T01:51:23.122Z,1.77
2023-04-12T01:52:23.220Z,1.72
2023-04-12T01:53:23.324Z,1.66
2023-04-12T01:54:23.438Z,1.60
2023-04-12T01:55:23.483Z,1.55
2023-04-12T01:56:23.570Z,1.48
2023-04-12T01:57:23.644Z,1.44
2023-04-12T01:58:23.750Z,1.36
2023-04-12T01:59:23.876Z,1.32
2023-04-12T02:00:23.954Z,1.32
2023-04-12T02:01:24.021Z,1.29
2023-04-12T02:02:24.161Z,1.20
2023-04-12T02:03:24.284Z,1.18
2023-04-12T02:04:24.268Z,1.23
2023-04-12T02:05:24.403Z,1.16
2023-04-12T02:06:24.430Z,1.09
2023-04-12T02:07:24.554Z,1.14
2023-04-12T02:08:24.600Z,1.11
2023-04-12T02:09:24.694Z,1.15
2023-04-12T02:10:24.836Z,1.09
2023-04-12T02:11:24.853Z,1.04
2023-04-12T02:12:24.966Z,1.09
2023-04-12T02:13:25.017Z,1.09
2023-04-12T02:14:25.076Z,1.00
2023-04-12T02:15:25.191Z,0.94
2023-04-12T02:16:25.232Z,0.90
2023-04-12T02:17:25.295Z,0.90
2023-04-12T02:18:25.416Z,0.90
2023-04-12T02:19:25.472Z,0.87
2023-04-12T02:20:25.589Z,0.91
2023-04-12T02:21:25.631Z,0.93
2023-04-12T02:22:25.709Z,1.00
2023-04-12T02:23:25.812Z,0.98
2023-04-12T02:24:25.869Z,1.00
2023-04-12T02:25:25.980Z,1.05
2023-04-12T02:26:26.053Z,0.97
2023-04-12T02:27:26.114Z,1.04
2023-04-12T02:28:26.179Z,0.93
2023-04-12T02:29:26.305Z,0.90
2023-04-12T02:30:26.390Z,0.88
2023-04-12T02:31:26.476Z,0.80
2023-04-12T02:32:26.589Z,0.83
2023-04-12T02:33:26.662Z,0.83
2023-04-12T02:34:26.738Z,0.80
2023-04-12T02:35:26.937Z,0.79
2023-04-12T02:36:26.961Z,0.78
2023-04-12T02:37:27.007Z,0.73
2023-04-12T02:38:27.118Z,0.72
2023-04-12T02:39:27.174Z,0.72
2023-04-12T02:40:27.264Z,0.69
2023-04-12T02:41:27.369Z,0.68
2023-04-12T02:42:27.461Z,0.72
2023-04-12T02:43:27.500Z,0.69
2023-04-12T02:44:27.587Z,0.66
2023-04-12T02:45:27.665Z,0.69
2023-04-12T02:46:27.814Z,0.58
2023-04-12T02:47:27.931Z,0.61
2023-04-12T02:48:27.952Z,0.68
2023-04-12T02:49:27.981Z,0.65
2023-04-12T02:50:28.046Z,0.61
2023-04-12T02:51:28.154Z,0.69
2023-04-12T02:52:28.245Z,0.70
2023-04-12T02:53:28.354Z,0.73
2023-04-12T02:54:28.429Z,0.73
2023-04-12T02:55:28.489Z,0.80
2023-04-12T02:56:28.577Z,0.79
2023-04-12T02:57:28.656Z,0.79
2023-04-12T02:58:28.771Z,0.87
2023-04-12T02:59:28.817Z,0.83
2023-04-12T03:00:28.896Z,0.83
2023-04-12T03:01:29.044Z,0.79
2023-04-12T03:02:29.208Z,0.73
2023-04-12T03:03:29.320Z,0.75
2023-04-12T03:04:29.316Z,0.66
2023-04-12T03:05:29.337Z,0.60
2023-04-12T03:06:29.463Z,0.58
2023-04-12T03:07:29.512Z,0.51
2023-04-12T03:08:29.604Z,0.55
2023-04-12T03:09:29.709Z,0.53
2023-04-12T03:10:29.774Z,0.60
2023-04-12T03:11:29.854Z,0.47
2023-04-12T03:12:29.939Z,0.47
2023-04-12T03:13:30.036Z,0.47
2023-04-12T03:14:30.153Z,0.41
2023-04-12T03:15:30.227Z,0.42
2023-04-12T03:16:30.330Z,0.41
2023-04-12T03:17:30.399Z,0.41
2023-04-12T03:18:30.482Z,0.39
2023-04-12T03:19:30.613Z,0.41
2023-04-12T03:20:30.665Z,0.36
2023-04-12T03:21:30.717Z,0.39
2023-04-12T03:22:30.799Z,0.41
2023-04-12T03:23:30.911Z,0.33
2023-04-12T03:24:30.995Z,0.33
2023-04-12T03:25:31.023Z,0.29
2023-04-12T03:26:31.121Z,0.35
2023-04-12T03:27:31.236Z,0.32
2023-04-12T03:28:31.270Z,0.32
2023-04-12T03:29:31.371Z,0.24
2023-04-12T03:30:31.455Z,0.29
2023-04-12T03:31:31.680Z,0.26
2023-04-12T03:32:31.637Z,0.26
2023-04-12T03:33:31.722Z,0.21
2023-04-12T03:34:31.811Z,0.26
2023-04-12T03:35:32.005Z,0.23
2023-04-12T03:36:32.029Z,0.24
2023-04-12T03:37:32.083Z,0.20
2023-04-12T03:38:32.168Z,0.24
2023-04-12T03:39:32.193Z,0.18
2023-04-12T03:40:32.257Z,0.17
2023-04-12T03:41:32.368Z,0.23
2023-04-12T03:42:33.827Z,0.17
2023-04-12T03:43:32.483Z,0.20
2023-04-12T03:44:32.593Z,0.18
2023-04-12T03:45:32.670Z,0.14
2023-04-12T03:46:32.760Z,0.13
2023-04-12T03:47:32.938Z,0.13
2023-04-12T03:48:32.922Z,0.07
2023-04-12T03:49:33.001Z,0.04
2023-04-12T03:50:33.107Z,0.03
2023-04-12T03:51:33.157Z,0.07
2023-04-12T03:52:33.279Z,0.03
2023-04-12T03:53:33.307Z,0.00
2023-04-12T03:54:33.412Z,0.00
2023-04-12T03:55:33.483Z,0.08
2023-04-12T03:56:33.595Z,0.07
2023-04-12T03:57:33.719Z,0.07
2023-04-12T03:58:33.779Z,0.13
2023-04-12T03:59:33.858Z,0.23
2023-04-12T04:00:33.962Z,0.24
2023-04-12T04:01:34.005Z,0.32
2023-04-12T04:02:34.297Z,0.35
2023-04-12T04:03:34.294Z,0.36
2023-04-12T04:04:34.339Z,0.39
2023-04-12T04:05:34.335Z,0.41
2023-04-12T04:06:34.452Z,0.42
2023-04-12T04:07:34.528Z,0.46
2023-04-12T04:08:34.629Z,0.44
2023-04-12T04:09:34.667Z,0.47
2023-04-12T04:10:34.739Z,0.50
2023-04-12T04:11:34.810Z,0.46
2023-04-12T04:12:34.880Z,0.46
2023-04-12T04:13:35.002Z,0.41
2023-04-12T04:14:35.033Z,0.35
2023-04-12T04:15:35.136Z,0.31
2023-04-12T04:16:35.207Z,0.29
2023-04-12T04:17:35.281Z,0.29
2023-04-12T04:18:35.410Z,0.18
2023-04-12T04:19:35.436Z,0.18
2023-04-12T04:20:35.571Z,0.14
2023-04-12T04:21:35.636Z,0.15
2023-04-12T04:22:35.691Z,0.10
2023-04-12T04:23:35.769Z,0.08
2023-04-12T04:24:35.852Z,0.08
2023-04-12T04:25:35.930Z,0.04
2023-04-12T04:26:35.991Z,0.00
2023-04-12T04:27:36.035Z,0.03
2023-04-12T04:28:36.169Z,0.00
2023-04-12T04:29:36.215Z,-0.03
2023-04-12T04:30:36.307Z,-0.03
2023-04-12T04:31:36.463Z,-0.03
2023-04-12T04:32:36.561Z,-0.07
2023-04-12T04:33:36.554Z,-0.03
2023-04-12T04:34:36.658Z,-0.01
2023-04-12T04:35:36.779Z,-0.05
2023-04-12T04:36:36.795Z,-0.03
2023-04-12T04:37:36.875Z,0.02
2023-04-12T04:38:36.959Z,0.08
2023-04-12T04:39:37.035Z,0.13
2023-04-12T04:40:37.178Z,0.15
2023-04-12T04:41:37.208Z,0.17
2023-04-12T04:42:37.289Z,0.14
2023-04-12T04:43:37.353Z,0.20
2023-04-12T04:44:37.454Z,0.14
2023-04-12T04:45:37.519Z,0.18
2023-04-12T04:46:37.649Z,0.15
2023-04-12T04:47:37.793Z,0.11
2023-04-12T04:48:37.775Z,0.10
2023-04-12T04:49:37.846Z,0.08
2023-04-12T04:50:37.891Z,0.03
2023-04-12T04:51:38.003Z,0.03
2023-04-12T04:52:38.087Z,0.03
2023-04-12T04:53:38.150Z,0.04
2023-04-12T04:54:38.287Z,0.04
2023-04-12T04:55:38.348Z,0.02
2023-04-12T04:56:38.412Z,0.03
2023-04-12T04:57:38.505Z,0.02
2023-04-12T04:58:38.597Z,0.03
2023-04-12T04:59:38.703Z,0.00
2023-04-12T05:00:38.764Z,0.04
2023-04-12T05:01:39.014Z,0.04
2023-04-12T05:02:39.047Z,0.04
2023-04-12T05:03:39.023Z,0.07
2023-04-12T05:04:39.047Z,0.07
2023-04-12T05:05:39.157Z,0.08
2023-04-12T05:06:39.235Z,0.15
2023-04-12T05:07:39.373Z,0.11
2023-04-12T05:08:39.456Z,0.11
2023-04-12T05:09:39.494Z,0.14
2023-04-12T05:10:39.571Z,0.13
2023-04-12T05:11:39.683Z,0.15
2023-04-12T05:12:39.759Z,0.18
2023-04-12T05:13:39.841Z,0.24
2023-04-12T05:14:47.394Z,0.26
2023-04-12T05:15:40.984Z,0.33
2023-04-12T05:16:40.115Z,0.41
2023-04-12T05:17:40.188Z,0.50
2023-04-12T05:18:40.203Z,0.55
2023-04-12T05:19:40.347Z,0.61
2023-04-12T05:20:40.367Z,0.60
2023-04-12T05:21:43.026Z,0.62
2023-04-12T05:22:40.570Z,0.65
2023-04-12T05:23:40.643Z,0.75
2023-04-12T05:24:40.696Z,0.83
2023-04-12T05:25:40.834Z,0.88
2023-04-12T05:26:40.836Z,0.83
2023-04-12T05:27:40.953Z,0.83
2023-04-12T05:28:41.065Z,0.86
2023-04-12T05:29:41.060Z,0.96
2023-04-12T05:30:41.220Z,0.91
2023-04-12T05:31:41.218Z,0.97
2023-04-12T05:32:41.337Z,1.02
2023-04-12T05:33:41.449Z,1.04
2023-04-12T05:34:41.473Z,1.15
2023-04-12T05:35:41.557Z,1.20
2023-04-12T05:36:41.669Z,1.30
2023-04-12T05:37:41.698Z,1.34
2023-04-12T05:38:41.780Z,1.37
2023-04-12T05:39:41.836Z,1.48
2023-04-12T05:40:41.942Z,1.60
2023-04-12T05:41:42.061Z,1.59
2023-04-12T05:42:42.104Z,1.65
2023-04-12T05:43:42.156Z,1.72
2023-04-12T05:44:42.281Z,1.81
2023-04-12T05:45:42.310Z,1.83
2023-04-12T05:46:42.604Z,1.86
2023-04-12T05:47:42.537Z,1.91
2023-04-12T05:48:42.538Z,1.98
2023-04-12T05:49:42.637Z,1.99
2023-04-12T05:50:42.699Z,2.07
2023-04-12T05:51:42.815Z,2.12
2023-04-12T05:52:42.869Z,2.16
2023-04-12T05:53:43.232Z,2.17
2023-04-12T05:54:43.043Z,2.21
2023-04-12T05:55:43.164Z,2.27
2023-04-12T05:56:43.256Z,2.31
2023-04-12T05:57:43.257Z,2.35
2023-04-12T05:58:43.380Z,2.38
2023-04-12T05:59:43.444Z,2.41
2023-04-12T06:00:43.529Z,2.43
2023-04-12T06:01:43.682Z,2.45
2023-04-12T06:02:43.867Z,2.49
2023-04-12T06:03:43.921Z,2.49
2023-04-12T06:04:50.752Z,2.54
2023-04-12T06:05:44.951Z,2.61
2023-04-12T06:06:44.015Z,2.60
2023-04-12T06:07:44.122Z,2.69
2023-04-12T06:08:44.206Z,2.67
2023-04-12T06:09:44.358Z,2.74
2023-04-12T06:10:44.392Z,2.75
2023-04-12T06:11:44.461Z,2.84
2023-04-12T06:12:44.616Z,2.92
2023-04-12T06:13:44.652Z,2.92
2023-04-12T06:14:44.762Z,2.97
2023-04-12T06:15:44.837Z,3.05
2023-04-12T06:16:44.917Z,3.17
2023-04-12T06:17:45.089Z,3.21
2023-04-12T06:18:45.076Z,3.28
2023-04-12T06:19:45.191Z,3.29
2023-04-12T06:20:45.234Z,3.40
2023-04-12T06:21:45.319Z,3.43
2023-04-12T06:22:45.446Z,3.51
2023-04-12T06:23:45.454Z,3.55
2023-04-12T06:24:45.599Z,3.65
2023-04-12T06:25:45.635Z,3.62
2023-04-12T06:26:45.725Z,3.75
2023-04-12T06:27:45.821Z,3.79
2023-04-12T06:28:45.931Z,3.86
2023-04-12T06:29:46.021Z,3.94
2023-04-12T06:30:46.100Z,3.97
2023-04-12T06:31:46.214Z,4.05
2023-04-12T06:32:46.318Z,4.15
2023-04-12T06:33:46.377Z,4.24
2023-04-12T06:34:46.452Z,4.40
2023-04-12T06:35:46.550Z,4.41
2023-04-12T06:36:46.595Z,4.60
2023-04-12T06:37:46.678Z,4.69
2023-04-12T06:38:46.826Z,4.80
2023-04-12T06:39:46.897Z,4.91
2023-04-12T06:40:46.956Z,5.00
2023-04-12T06:43:14.066Z,5.03
2023-04-12T06:43:41.820Z,5.20
2023-04-12T06:44:14.892Z,5.28
2023-04-12T06:45:15.001Z,5.42
2023-04-12T06:46:15.054Z,5.48
2023-04-12T06:47:15.279Z,5.58
2023-04-12T06:48:15.211Z,5.65
2023-04-12T06:49:15.315Z,5.78
2023-04-12T06:50:15.439Z,5.81
2023-04-12T06:51:15.437Z,5.93
2023-04-12T06:52:15.529Z,6.01
2023-04-12T06:53:15.742Z,6.12
2023-04-12T06:54:15.668Z,6.22
2023-04-12T06:55:15.796Z,6.30
2023-04-12T06:56:18.309Z,6.37
2023-04-12T06:57:15.939Z,6.48
2023-04-12T06:58:16.062Z,6.59
2023-04-12T06:59:16.119Z,6.69
2023-04-12T07:00:16.275Z,6.80
2023-04-12T07:01:16.351Z,6.85
2023-04-12T07:02:16.418Z,6.95
2023-04-12T07:03:16.502Z,6.99
2023-04-12T07:04:16.626Z,7.10
2023-04-12T07:05:16.764Z,7.15
2023-04-12T07:06:25.208Z,7.23
2023-04-12T07:07:17.774Z,7.30
2023-04-12T07:08:17.041Z,7.28
2023-04-12T07:09:16.913Z,7.43
2023-04-12T07:10:17.065Z,7.58
2023-04-12T07:11:21.492Z,7.71
2023-04-12T07:12:18.142Z,7.80
2023-04-12T07:13:17.249Z,7.87
2023-04-12T07:14:17.309Z,8.01
2023-04-12T07:15:17.694Z,8.10
2023-04-12T07:16:17.584Z,8.25
2023-04-12T07:17:17.578Z,8.25
2023-04-12T07:18:17.648Z,8.30
2023-04-12T07:19:17.745Z,8.29
2023-04-12T07:20:18.256Z,8.33
2023-04-12T07:21:17.960Z,8.37
2023-04-12T07:22:17.989Z,8.36
2023-04-12T07:23:18.143Z,8.41
2023-04-12T07:24:18.166Z,8.50
2023-04-12T07:25:18.291Z,8.52
2023-04-12T07:26:18.312Z,8.52
2023-04-12T07:27:18.380Z,8.61
2023-04-12T07:28:18.465Z,8.70
2023-04-12T07:29:18.559Z,8.79
2023-04-12T07:30:18.701Z,8.86
2023-04-12T07:31:18.725Z,8.94
2023-04-12T07:32:18.905Z,8.95
2023-04-12T07:33:19.934Z,9.01
2023-04-12T07:34:19.087Z,9.08
2023-04-12T07:35:19.117Z,9.10
2023-04-12T07:36:19.211Z,9.17
2023-04-12T07:37:19.306Z,9.15
2023-04-12T07:38:19.334Z,9.23
2023-04-12T07:39:19.427Z,9.20
2023-04-12T07:40:19.585Z,9.10
2023-04-12T07:41:19.550Z,9.02
2023-04-12T07:42:19.634Z,9.01
2023-04-12T07:43:20.379Z,9.05
2023-04-12T07:44:19.825Z,9.08
2023-04-12T07:45:19.941Z,9.10
2023-04-12T07:46:20.038Z,9.20
2023-04-12T07:47:20.104Z,9.21
2023-04-12T07:48:20.165Z,9.28
2023-04-12T07:49:20.266Z,9.33
2023-04-12T07:50:20.332Z,9.38
2023-04-12T07:51:20.430Z,9.43
2023-04-12T07:52:20.524Z,9.53
2023-04-12T07:53:20.748Z,9.54
2023-04-12T07:54:21.716Z,9.58
2023-04-12T07:55:20.812Z,9.56
2023-04-12T07:56:20.842Z,9.64
2023-04-12T07:57:20.974Z,9.69
2023-04-12T07:58:20.998Z,9.81
2023-04-12T07:59:21.114Z,9.72
2023-04-12T08:00:21.177Z,9.76
2023-04-12T08:01:21.254Z,9.78
2023-04-12T08:02:21.408Z,9.86
2023-04-12T08:03:21.500Z,9.96
2023-04-12T08:04:21.619Z,9.96
2023-04-12T08:05:21.598Z,9.93
2023-04-12T08:06:21.726Z,9.93
2023-04-12T08:07:21.742Z,9.96
2023-04-12T08:08:21.777Z,10.04
2023-04-12T08:09:21.862Z,10.05
2023-04-12T08:10:21.947Z,10.02
2023-04-12T08:11:21.986Z,10.12
2023-04-12T08:12:22.076Z,10.17
2023-04-12T08:13:23.238Z,10.23
2023-04-12T08:14:22.239Z,10.29
2023-04-12T08:15:22.316Z,10.30
2023-04-12T08:16:22.512Z,10.25
2023-04-12T08:17:22.519Z,10.30
2023-04-12T08:18:22.585Z,10.34
2023-04-12T08:19:22.760Z,10.36
2023-04-12T08:20:22.850Z,10.38
2023-04-12T08:21:22.923Z,10.45
2023-04-12T08:22:22.972Z,10.51
2023-04-12T08:23:23.085Z,10.55
2023-04-12T08:24:23.095Z,10.59
2023-04-12T08:25:23.210Z,10.63
2023-04-12T08:26:23.269Z,10.64
2023-04-12T08:27:23.323Z,10.66
2023-04-12T08:28:23.425Z,10.70
2023-04-12T08:29:23.481Z,10.64
2023-04-12T08:30:23.564Z,10.56
2023-04-12T08:31:23.690Z,10.55
2023-04-12T08:32:23.733Z,10.63
2023-04-12T08:33:23.775Z,10.71
2023-04-12T08:34:23.882Z,10.82
2023-04-12T08:35:24.189Z,10.85
2023-04-12T08:36:24.121Z,10.91
2023-04-12T08:37:24.146Z,11.00
2023-04-12T08:38:30.986Z,11.11
2023-04-12T08:39:25.316Z,11.19
2023-04-12T08:40:24.437Z,11.28
2023-04-12T08:41:24.490Z,11.28
2023-04-12T08:42:24.796Z,11.35
2023-04-12T08:43:24.644Z,11.25
2023-04-12T08:44:24.734Z,11.33
2023-04-12T08:45:24.800Z,11.37
2023-04-12T08:46:24.945Z,11.36
2023-04-12T08:47:25.063Z,11.36
2023-04-12T08:48:25.070Z,11.39
2023-04-12T08:49:25.175Z,11.36
2023-04-12T08:50:25.252Z,11.25
2023-04-12T08:51:25.333Z,11.29
2023-04-12T08:52:25.465Z,11.33
2023-04-12T08:53:25.545Z,11.36
2023-04-12T08:54:25.595Z,11.46
2023-04-12T08:55:25.671Z,11.52
2023-04-12T08:56:25.789Z,11.69
2023-04-12T08:57:25.876Z,11.76
2023-04-12T08:58:25.900Z,11.78
2023-04-12T08:59:26.027Z,11.95
2023-04-12T09:00:26.083Z,12.04
2023-04-12T09:01:26.221Z,12.17
2023-04-12T09:02:26.493Z,12.16
2023-04-12T09:03:26.717Z,12.19
2023-04-12T09:04:26.561Z,12.19
2023-04-12T09:05:26.566Z,12.23
2023-04-12T09:06:26.719Z,12.23
2023-04-12T09:07:26.713Z,12.21
2023-04-12T09:08:26.767Z,12.24
2023-04-12T09:09:26.914Z,12.27
2023-04-12T09:10:26.947Z,12.27
2023-04-12T09:11:27.007Z,12.35
2023-04-12T09:12:27.151Z,12.31
2023-04-12T09:13:27.192Z,12.32
2023-04-12T09:14:27.307Z,12.34
2023-04-12T09:15:27.366Z,12.31
2023-04-12T09:16:27.510Z,12.37
2023-04-12T09:17:27.836Z,12.49
2023-04-12T09:18:27.625Z,12.46
2023-04-12T09:19:27.724Z,12.49
2023-04-12T09:20:27.808Z,12.38
2023-04-12T09:21:27.893Z,12.45
2023-04-12T09:22:28.044Z,12.39
2023-04-12T09:23:28.039Z,12.47
2023-04-12T09:24:28.166Z,12.54
2023-04-12T09:25:28.272Z,12.57
2023-04-12T09:26:28.404Z,12.57
2023-04-12T09:27:28.426Z,12.47
2023-04-12T09:28:28.496Z,12.50
2023-04-12T09:29:28.601Z,12.59
2023-04-12T09:30:28.697Z,12.71
2023-04-12T09:31:28.843Z,12.78
2023-04-12T09:32:28.911Z,12.92
2023-04-12T09:33:28.906Z,12.89
2023-04-12T09:34:28.995Z,12.93
2023-04-12T09:35:29.064Z,12.86
2023-04-12T09:36:29.179Z,13.00
2023-04-12T09:37:29.260Z,13.03
2023-04-12T09:38:29.323Z,13.10
2023-04-12T09:39:29.428Z,13.26
2023-04-12T09:40:29.538Z,13.26
2023-04-12T09:41:29.574Z,13.32
2023-04-12T09:42:34.028Z,13.29
2023-04-12T09:43:30.756Z,13.11
2023-04-12T09:44:29.829Z,13.14
2023-04-12T09:45:30.037Z,13.15
2023-04-12T09:46:30.110Z,13.20
2023-04-12T09:47:30.059Z,13.38
2023-04-12T09:48:30.114Z,13.46
2023-04-12T09:49:30.253Z,13.46
2023-04-12T09:50:30.312Z,13.66
2023-04-12T09:51:30.343Z,13.60
2023-04-12T09:52:32.305Z,13.59
2023-04-12T09:53:30.504Z,13.63
2023-04-12T09:54:30.600Z,13.71
2023-04-12T09:55:30.758Z,13.62
2023-04-12T09:56:30.780Z,13.69
2023-04-12T09:57:30.897Z,13.64
2023-04-12T09:58:31.721Z,13.79
2023-04-12T09:59:31.053Z,13.84
2023-04-12T10:00:31.154Z,13.96
2023-04-12T10:01:32.223Z,14.00
2023-04-12T10:02:31.413Z,14.04
2023-04-12T10:03:31.734Z,14.15
2023-04-12T10:04:31.538Z,14.20
2023-04-12T10:05:31.756Z,14.20
2023-04-12T10:06:31.630Z,14.18
2023-04-12T10:07:31.810Z,14.07
2023-04-12T10:08:31.787Z,14.09
2023-04-12T10:09:31.920Z,13.99
2023-04-12T10:10:31.945Z,14.06
2023-04-12T10:11:32.015Z,14.22
2023-04-12T10:12:32.161Z,14.27
2023-04-12T10:13:32.229Z,14.24
2023-04-12T10:14:32.281Z,14.29
2023-04-12T10:15:33.204Z,14.33
2023-04-12T10:16:33.506Z,14.24
2023-04-12T10:17:32.617Z,14.15
2023-04-12T10:18:32.617Z,14.12
2023-04-12T10:19:32.699Z,14.04
2023-04-12T10:20:39.687Z,14.06
2023-04-12T10:21:32.942Z,14.17
2023-04-12T10:22:32.972Z,14.29
2023-04-12T10:23:33.099Z,14.40
2023-04-12T10:24:33.162Z,14.33
2023-04-12T10:25:33.196Z,14.36
2023-04-12T10:26:33.299Z,14.29
2023-04-12T10:27:33.355Z,14.37
2023-04-12T10:28:33.485Z,14.57
2023-04-12T10:29:33.588Z,14.70
2023-04-12T10:30:33.696Z,14.62
2023-04-12T10:31:33.799Z,14.47
2023-04-12T10:32:35.425Z,14.45
2023-04-12T10:33:33.896Z,14.37
2023-04-12T10:34:34.036Z,14.47
2023-04-12T10:35:34.084Z,14.52
2023-04-12T10:36:34.172Z,14.46
2023-04-12T10:37:34.211Z,14.52
2023-04-12T10:38:36.116Z,14.51
2023-04-12T10:39:34.364Z,14.55
2023-04-12T10:40:34.433Z,14.58
2023-04-12T10:41:34.553Z,14.55
2023-04-12T10:42:34.581Z,14.60
2023-04-12T10:43:34.688Z,14.69
2023-04-12T10:44:34.742Z,14.75
2023-04-12T10:45:34.833Z,14.83
2023-04-12T10:46:35.015Z,14.88
2023-04-12T10:47:35.090Z,14.83
2023-04-12T10:48:35.133Z,14.80
2023-04-12T10:49:35.189Z,14.88
2023-04-12T10:50:35.320Z,14.95
2023-04-12T10:51:35.362Z,14.99
2023-04-12T10:52:35.520Z,15.13
2023-04-12T10:53:35.566Z,15.16
2023-04-12T10:54:35.877Z,15.25
2023-04-12T10:55:35.713Z,15.23
2023-04-12T10:56:35.827Z,15.20
2023-04-12T10:57:35.911Z,15.34
2023-04-12T10:58:36.006Z,15.36
2023-04-12T10:59:47.366Z,15.34
2023-04-12T11:00:37.143Z,15.47
2023-04-12T11:01:38.652Z,15.54
2023-04-12T11:02:36.344Z,15.21
2023-04-12T11:03:36.520Z,15.14
2023-04-12T11:04:36.474Z,15.21
2023-04-12T11:05:36.587Z,15.31
2023-04-12T11:06:36.651Z,15.17
2023-04-12T11:07:36.741Z,15.28
2023-04-12T11:08:36.765Z,15.25
2023-04-12T11:09:36.958Z,15.25
2023-04-12T11:10:36.984Z,15.34
2023-04-12T11:11:37.143Z,15.19
2023-04-12T11:12:37.153Z,15.29
2023-04-12T11:13:37.267Z,15.44
2023-04-12T11:14:37.407Z,15.54
2023-04-12T11:15:37.460Z,15.65
2023-04-12T11:16:37.546Z,15.71
2023-04-12T11:17:37.935Z,15.72
2023-04-12T11:18:37.785Z,15.96
2023-04-12T11:19:37.811Z,16.02
2023-04-12T11:20:37.902Z,15.96
2023-04-12T11:21:37.966Z,15.93
2023-04-12T11:22:37.997Z,15.89
2023-04-12T11:23:38.108Z,15.82
2023-04-12T11:24:38.317Z,15.74
2023-04-12T11:25:38.265Z,15.72
2023-04-12T11:26:38.390Z,15.54
2023-04-12T11:27:38.415Z,15.54
2023-04-12T11:28:38.496Z,15.74
2023-04-12T11:29:38.558Z,15.96
2023-04-12T11:30:38.616Z,15.96
2023-04-12T11:31:38.788Z,15.83
2023-04-12T11:32:38.807Z,15.90
2023-04-12T11:33:38.931Z,16.07
2023-04-12T11:34:38.950Z,16.01
2023-04-12T11:35:39.089Z,16.01
2023-04-12T11:36:39.178Z,16.02
2023-04-12T11:37:39.286Z,16.01
2023-04-12T11:38:39.299Z,15.93
2023-04-12T11:39:39.370Z,15.87
2023-04-12T11:40:39.461Z,15.93
2023-04-12T11:41:39.621Z,16.01
2023-04-12T11:42:39.644Z,16.08
2023-04-12T11:43:39.765Z,15.80
2023-04-12T11:44:55.103Z,15.68
2023-04-12T11:45:40.888Z,15.78
2023-04-12T11:46:39.998Z,16.00
2023-04-12T11:47:40.152Z,16.23
2023-04-12T11:48:40.160Z,16.46
2023-04-12T11:49:40.205Z,16.45
2023-04-12T11:50:40.318Z,16.42
2023-04-12T11:51:40.375Z,16.21
2023-04-12T11:52:40.833Z,16.17
2023-04-12T11:53:40.541Z,16.25
2023-04-12T11:54:40.725Z,16.33
2023-04-12T11:55:40.720Z,16.48
2023-04-12T11:56:40.798Z,16.81
2023-04-12T11:57:40.971Z,16.97
2023-04-12T11:58:40.993Z,17.07
2023-04-12T11:59:41.096Z,16.97
2023-04-12T12:00:41.172Z,16.86
2023-04-12T12:01:41.318Z,16.94
2023-04-12T12:02:52.099Z,16.88
2023-04-12T12:03:42.720Z,16.83
2023-04-12T12:04:41.911Z,16.68
2023-04-12T12:05:42.000Z,16.38
2023-04-12T12:06:42.074Z,16.12
2023-04-12T12:07:41.814Z,15.96
2023-04-12T12:08:47.707Z,15.97
2023-04-12T12:09:43.044Z,15.87
2023-04-12T12:10:49.247Z,15.82
2023-04-12T12:11:43.096Z,15.69
2023-04-12T12:12:42.215Z,15.56
2023-04-12T12:13:43.038Z,15.41
2023-04-12T12:14:42.444Z,15.46
2023-04-12T12:15:42.521Z,15.47
2023-04-12T12:16:42.532Z,15.53
2023-04-12T12:17:42.643Z,15.54
2023-04-12T12:18:42.772Z,15.64
2023-04-12T12:19:42.948Z,15.59
2023-04-12T12:20:43.000Z,15.59
2023-04-12T12:21:43.001Z,15.57
2023-04-12T12:22:43.066Z,15.43
2023-04-12T12:23:43.149Z,15.36
2023-04-12T12:24:43.814Z,15.28
2023-04-12T12:25:43.326Z,15.07
2023-04-12T12:26:43.345Z,15.10
2023-04-12T12:27:43.486Z,15.10
2023-04-12T12:28:43.482Z,15.13
2023-04-12T12:29:43.576Z,15.14
2023-04-12T12:30:43.713Z,15.31
2023-04-12T12:31:43.833Z,15.50
2023-04-12T12:32:43.870Z,15.44
2023-04-12T12:33:47.041Z,15.57
2023-04-12T12:34:44.010Z,15.56
2023-04-12T12:35:44.187Z,15.59
2023-04-12T12:36:44.193Z,15.57
2023-04-12T12:37:44.305Z,15.69
2023-04-12T12:38:44.354Z,15.72
2023-04-12T12:39:44.467Z,15.75
2023-04-12T12:40:44.606Z,15.75
2023-04-12T13:53:05.894Z,15.60
2023-04-12T13:54:04.536Z,15.60
2023-04-12T13:55:04.582Z,15.47
2023-04-12T13:56:04.676Z,15.57
2023-04-12T13:57:04.743Z,15.65
2023-04-12T13:58:04.919Z,15.76
2023-04-12T13:59:04.944Z,15.87
2023-04-12T14:00:05.080Z,15.96
2023-04-12T14:01:05.190Z,15.92
2023-04-12T14:02:05.283Z,15.96
2023-04-12T14:03:05.650Z,15.87
2023-04-12T14:04:05.455Z,15.72
2023-04-12T14:05:05.604Z,15.64
2023-04-12T14:06:05.510Z,15.64
2023-04-12T14:07:05.578Z,15.53
2023-04-12T14:08:05.687Z,15.59
2023-04-12T14:09:05.811Z,15.47
2023-04-12T14:10:05.827Z,15.41
2023-04-12T14:11:05.897Z,15.32
2023-04-12T14:12:06.004Z,15.23
2023-04-12T14:13:06.104Z,15.19
2023-04-12T14:14:06.235Z,15.17
2023-04-12T14:15:06.249Z,15.14
2023-04-12T14:16:06.350Z,15.06
2023-04-12T14:17:06.480Z,15.02
2023-04-12T14:18:06.549Z,14.96
2023-04-12T14:19:06.643Z,14.96
2023-04-12T14:20:06.768Z,14.86
2023-04-12T14:21:06.779Z,14.88
2023-04-12T14:22:06.890Z,14.80
2023-04-12T14:23:08.123Z,14.77
2023-04-12T14:24:07.027Z,14.73
2023-04-12T14:25:07.142Z,14.72
2023-04-12T14:26:07.166Z,14.69
2023-04-12T14:27:07.250Z,14.72
2023-04-12T14:28:07.344Z,14.77
2023-04-12T14:29:07.419Z,14.80
2023-04-12T14:30:07.595Z,14.78
2023-04-12T14:31:07.715Z,14.72
2023-04-12T14:32:07.725Z,14.70
2023-04-12T14:33:07.786Z,14.69
2023-04-12T14:34:07.837Z,14.65
2023-04-12T14:35:07.941Z,14.60
2023-04-12T14:36:08.094Z,14.57
2023-04-12T14:37:08.118Z,14.54
2023-04-12T14:38:08.208Z,14.57
2023-04-12T14:39:10.425Z,14.50
2023-04-12T14:40:08.419Z,14.54
2023-04-12T14:41:08.484Z,14.51
2023-04-12T14:42:08.505Z,14.45
2023-04-12T14:43:08.582Z,14.50
2023-04-12T14:44:08.653Z,14.51
2023-04-12T14:45:08.732Z,14.46
2023-04-12T14:46:08.895Z,14.45
2023-04-12T14:47:08.919Z,14.42
2023-04-12T14:48:09.099Z,14.42
2023-04-12T14:49:09.088Z,14.46
2023-04-12T14:50:09.137Z,14.40
2023-04-12T14:51:09.253Z,14.47
2023-04-12T14:52:09.313Z,14.43
2023-04-12T14:53:09.446Z,14.39
2023-04-12T14:54:09.442Z,14.36
2023-04-12T14:55:09.504Z,14.37
2023-04-12T14:56:09.596Z,14.24
2023-04-12T14:57:09.668Z,14.14
2023-04-12T14:58:09.773Z,14.10
2023-04-12T14:59:09.872Z,14.12
2023-04-12T15:00:09.964Z,14.04